createdAt,value
2023-04-05T00:02:18.694Z,52.43
2023-04-05T00:04:50.604Z,52.48
2023-04-05T00:07:19.137Z,52.41
2023-04-05T00:09:46.500Z,52.64
2023-04-05T00:12:13.631Z,52.63
2023-04-05T00:14:40.781Z,52.41
2023-04-05T00:17:09.491Z,52.76
2023-04-05T00:19:39.205Z,52.81
2023-04-05T00:22:06.284Z,52.78
2023-04-05T00:24:33.984Z,53.08
2023-04-05T00:27:01.272Z,52.90
2023-04-05T00:29:28.548Z,52.89
2023-04-05T00:31:56.502Z,52.92
2023-04-05T00:34:23.614Z,53.13
2023-04-05T00:36:50.876Z,52.83
2023-04-05T00:39:17.836Z,53.01
2023-04-05T00:41:46.897Z,53.01
2023-04-05T00:44:15.525Z,53.13
2023-04-05T00:46:42.536Z,52.82
2023-04-05T00:49:10.252Z,53.34
2023-04-05T00:51:38.076Z,53.11
2023-04-05T00:54:06.245Z,53.15
2023-04-05T00:56:33.268Z,52.90
2023-04-05T00:59:00.669Z,53.09
2023-04-05T01:01:29.001Z,53.08
2023-04-05T01:04:03.464Z,53.00
2023-04-05T01:07:04.643Z,53.15
2023-04-05T01:09:59.788Z,52.81
2023-04-05T01:16:57.975Z,53.38
2023-04-05T01:19:29.848Z,53.59
2023-04-05T01:22:26.461Z,53.45
2023-04-05T01:25:47.036Z,53.03
2023-04-05T01:29:12.193Z,53.30
2023-04-05T01:31:48.605Z,53.03
2023-04-05T01:34:49.969Z,53.51
2023-04-05T01:37:22.858Z,53.31
2023-04-05T01:39:50.923Z,53.52
2023-04-05T01:42:25.352Z,53.86
2023-04-05T01:44:57.414Z,53.57
2023-04-05T01:47:24.795Z,53.58
2023-04-05T01:49:51.798Z,53.47
2023-04-05T01:52:18.875Z,53.76
2023-04-05T01:54:45.905Z,53.84
2023-04-05T01:57:12.848Z,53.77
2023-04-05T01:59:39.771Z,53.97
2023-04-05T02:02:06.748Z,54.04
2023-04-05T02:04:33.832Z,53.52
2023-04-05T02:07:00.970Z,53.66
2023-04-05T02:09:28.014Z,54.18
2023-04-05T02:11:55.262Z,54.03
2023-04-05T02:14:22.384Z,54.25
2023-04-05T02:16:49.344Z,54.27
2023-04-05T02:19:22.894Z,54.20
2023-04-05T02:21:53.578Z,53.92
2023-04-05T02:24:21.687Z,53.90
2023-04-05T02:26:48.679Z,54.02
2023-04-05T02:29:15.658Z,53.67
2023-04-05T02:31:42.609Z,54.12
2023-04-05T02:34:11.525Z,53.80
2023-04-05T02:36:38.490Z,53.63
2023-04-05T02:39:05.466Z,54.52
2023-04-05T02:41:32.474Z,54.45
2023-04-05T02:44:00.018Z,54.05
2023-04-05T02:46:30.634Z,53.80
2023-04-05T02:48:57.979Z,54.00
2023-04-05T02:51:27.908Z,54.41
2023-04-05T02:53:54.972Z,53.93
2023-04-05T02:56:22.108Z,54.23
2023-04-05T02:58:49.526Z,54.00
2023-04-05T03:01:22.603Z,54.09
2023-04-05T03:03:50.182Z,53.96
2023-04-05T03:06:17.432Z,54.18
2023-04-05T03:08:49.208Z,54.02
2023-04-05T03:11:20.905Z,54.21
2023-04-05T03:13:51.717Z,54.30
2023-04-05T03:16:34.331Z,54.04
2023-04-05T03:19:07.894Z,54.12
2023-04-05T03:21:37.892Z,54.21
2023-04-05T03:24:13.076Z,54.16
2023-04-05T03:26:45.540Z,54.52
2023-04-05T03:29:13.648Z,54.43
2023-04-05T03:31:40.995Z,54.24
2023-04-05T03:34:09.581Z,54.30
2023-04-05T03:36:45.930Z,54.24
2023-04-05T03:39:28.220Z,54.66
2023-04-05T03:41:56.717Z,54.49
2023-04-05T03:44:23.679Z,54.67
2023-04-05T03:46:50.883Z,54.44
2023-04-05T03:49:19.808Z,54.28
2023-04-05T03:51:47.032Z,54.29
2023-04-05T03:54:14.548Z,54.52
2023-04-05T03:56:42.994Z,54.30
2023-04-05T03:59:14.566Z,54.23
2023-04-05T04:01:42.225Z,54.09
2023-04-05T04:04:09.168Z,54.22
2023-04-05T04:06:37.195Z,54.08
2023-04-05T04:09:05.761Z,54.11
2023-04-05T04:11:32.880Z,54.18
2023-04-05T04:14:03.111Z,54.00
2023-04-05T04:17:08.460Z,53.96
2023-04-05T04:19:50.970Z,53.90
2023-04-05T04:22:45.815Z,53.84
2023-04-05T04:25:39.058Z,53.84
2023-04-05T04:28:27.962Z,53.93
2023-04-05T04:31:17.001Z,53.67
2023-04-05T04:34:10.074Z,53.89
2023-04-05T04:37:01.433Z,53.82
2023-04-05T04:39:35.534Z,53.72
2023-04-05T04:42:23.798Z,53.60
2023-04-05T04:45:18.565Z,53.66
2023-04-05T04:47:57.638Z,53.74
2023-04-05T04:50:46.526Z,53.73
2023-04-05T04:53:17.254Z,53.70
2023-04-05T04:55:44.500Z,53.66
2023-04-05T04:58:13.234Z,53.54
2023-04-05T05:00:44.336Z,53.74
2023-04-05T05:03:12.215Z,53.71
2023-04-05T05:05:43.833Z,53.69
2023-04-05T05:08:10.933Z,53.79
2023-04-05T05:10:39.920Z,53.64
2023-04-05T05:13:07.036Z,53.75
2023-04-05T05:15:34.081Z,53.88
2023-04-05T05:18:01.249Z,53.96
2023-04-05T05:20:28.563Z,53.85
2023-04-05T05:22:56.192Z,53.92
2023-04-05T05:25:23.117Z,53.85
2023-04-05T05:27:53.363Z,53.91
2023-04-05T05:30:23.173Z,53.94
2023-04-05T05:32:50.621Z,53.98
2023-04-05T05:35:17.696Z,53.98
2023-04-05T05:37:44.759Z,53.81
2023-04-05T05:40:13.255Z,53.91
2023-04-05T05:42:40.548Z,53.98
2023-04-05T05:45:08.710Z,53.85
2023-04-05T05:47:36.133Z,54.06
2023-04-05T05:50:03.825Z,54.10
2023-04-05T05:52:31.089Z,54.06
2023-04-05T05:54:58.099Z,54.09
2023-04-05T05:57:25.016Z,53.97
2023-04-05T05:59:51.977Z,54.06
2023-04-05T06:02:19.314Z,54.21
2023-04-05T06:04:46.284Z,54.23
2023-04-05T06:07:13.706Z,54.25
2023-04-05T06:09:40.702Z,54.10
2023-04-05T06:12:07.768Z,53.98
2023-04-05T06:14:34.723Z,54.42
2023-04-05T06:17:01.673Z,54.29
2023-04-05T06:19:28.629Z,54.16
2023-04-05T06:21:55.588Z,54.26
2023-04-05T06:24:22.581Z,54.35
2023-04-05T06:26:51.851Z,54.37
2023-04-05T06:29:18.865Z,54.44
2023-04-05T06:31:47.861Z,54.49
2023-04-05T06:34:14.925Z,54.63
2023-04-05T06:36:42.674Z,54.57
2023-04-05T06:39:09.706Z,54.69
2023-04-05T06:41:36.757Z,54.73
2023-04-05T06:44:03.691Z,54.89
2023-04-05T06:46:30.727Z,55.24
2023-04-05T06:48:58.866Z,54.99
2023-04-05T06:51:26.639Z,55.15
2023-04-05T06:53:53.593Z,55.09
2023-04-05T06:56:20.528Z,55.32
2023-04-05T06:58:47.837Z,55.23
2023-04-05T07:01:14.875Z,55.46
2023-04-05T07:03:41.817Z,55.50
2023-04-05T07:06:09.701Z,55.47
2023-04-05T07:08:36.632Z,55.64
2023-04-05T07:11:03.742Z,55.81
2023-04-05T07:13:30.814Z,55.85
2023-04-05T07:16:03.255Z,55.96
2023-04-05T07:18:30.924Z,55.98
2023-04-05T07:21:03.925Z,56.09
2023-04-05T07:23:31.343Z,56.13
2023-04-05T07:26:05.824Z,56.18
2023-04-05T07:28:35.363Z,56.21
2023-04-05T07:31:03.946Z,56.33
2023-04-05T07:33:31.129Z,56.42
2023-04-05T07:35:58.384Z,56.48
2023-04-05T07:38:27.510Z,56.52
2023-04-05T07:40:54.475Z,56.66
2023-04-05T07:43:21.637Z,56.61
2023-04-05T07:45:48.717Z,56.80
2023-04-05T07:48:15.842Z,56.54
2023-04-05T07:50:47.510Z,56.77
2023-04-05T07:53:14.995Z,56.46
2023-04-05T07:55:43.021Z,56.76
2023-04-05T07:58:10.935Z,56.98
2023-04-05T08:00:38.611Z,56.91
2023-04-05T08:03:06.901Z,56.81
2023-04-05T08:05:33.872Z,56.87
2023-04-05T08:08:00.951Z,57.00
2023-04-05T08:10:27.945Z,56.89
2023-04-05T08:12:55.042Z,57.06
2023-04-05T08:15:22.018Z,57.19
2023-04-05T08:17:49.145Z,57.04
2023-04-05T08:20:16.159Z,57.02
2023-04-05T08:22:43.247Z,57.31
2023-04-05T08:25:11.825Z,57.21
2023-04-05T08:27:38.746Z,57.15
2023-04-05T08:30:06.788Z,57.24
2023-04-05T08:32:35.328Z,57.49
2023-04-05T08:35:02.477Z,57.53
2023-04-05T08:37:29.487Z,57.37
2023-04-05T08:39:56.431Z,57.19
2023-04-05T08:42:47.572Z,57.33
2023-04-05T08:45:17.977Z,56.89
2023-04-05T08:47:46.457Z,57.21
2023-04-05T08:50:14.250Z,57.49
2023-04-05T08:52:48.594Z,57.15
2023-04-05T08:55:16.773Z,57.34
2023-04-05T08:57:49.831Z,57.77
2023-04-05T09:00:18.069Z,57.64
2023-04-05T09:02:51.065Z,58.23
2023-04-05T09:05:21.193Z,57.55
2023-04-05T09:07:49.094Z,57.81
2023-04-05T09:10:18.686Z,58.04
2023-04-05T09:12:45.847Z,57.83
2023-04-05T09:15:14.083Z,57.88
2023-04-05T09:17:43.387Z,57.23
2023-04-05T09:20:10.379Z,57.94
2023-04-05T09:22:47.228Z,58.41
2023-04-05T09:25:43.761Z,58.65
2023-04-05T09:28:10.900Z,58.03
2023-04-05T09:30:38.409Z,57.97
2023-04-05T09:33:10.385Z,57.58
2023-04-05T09:35:37.959Z,57.66
2023-04-05T09:38:05.440Z,56.88
2023-04-05T09:40:48.535Z,58.36
2023-04-05T09:43:41.630Z,57.70
2023-04-05T09:46:34.072Z,57.57
2023-04-05T09:49:02.339Z,57.17
2023-04-05T09:51:37.772Z,58.04
2023-04-05T09:54:11.226Z,58.03
2023-04-05T09:56:41.936Z,57.51
2023-04-05T09:59:12.343Z,57.97
2023-04-05T10:01:44.425Z,58.09
2023-04-05T10:04:11.546Z,57.50
2023-04-05T10:06:43.026Z,57.48
2023-04-05T10:09:12.013Z,57.72
2023-04-05T10:11:39.438Z,57.39
2023-04-05T10:14:08.379Z,57.80
2023-04-05T10:17:16.170Z,57.27
2023-04-05T10:20:11.580Z,58.50
2023-04-05T10:23:12.384Z,57.77
2023-04-05T10:26:04.623Z,55.95
2023-04-05T10:28:37.448Z,56.07
2023-04-05T10:31:14.196Z,55.10
2023-04-05T10:33:47.471Z,55.72
2023-04-05T10:36:45.410Z,54.35
2023-04-05T10:39:45.780Z,55.76
2023-04-05T10:42:28.154Z,56.46
2023-04-05T10:45:06.780Z,56.62
2023-04-05T10:47:42.653Z,55.32
2023-04-05T10:50:20.178Z,55.15
2023-04-05T10:52:48.148Z,55.26
2023-04-05T10:55:16.924Z,55.69
2023-04-05T10:57:46.189Z,55.62
2023-04-05T11:00:16.322Z,53.83
2023-04-05T11:02:44.787Z,54.96
2023-04-05T11:05:34.512Z,57.71
2023-04-05T11:08:11.082Z,57.36
2023-04-05T11:10:39.488Z,57.33
2023-04-05T11:13:08.814Z,55.90
2023-04-05T11:15:36.536Z,54.32
2023-04-05T11:18:18.065Z,55.49
2023-04-05T11:21:06.408Z,56.62
2023-04-05T11:23:53.358Z,53.21
2023-04-05T11:26:20.412Z,51.78
2023-04-05T11:28:47.380Z,50.49
2023-04-05T11:31:18.329Z,50.43
2023-04-05T11:33:52.180Z,52.37
2023-04-05T11:36:36.815Z,50.68
2023-04-05T11:39:27.691Z,49.53
2023-04-05T11:42:16.644Z,51.50
2023-04-05T11:44:49.399Z,44.53
2023-04-05T11:47:23.283Z,49.91
2023-04-05T11:49:51.731Z,49.91
2023-04-05T11:52:21.686Z,49.16
2023-04-05T11:54:49.903Z,48.94
2023-04-05T11:57:24.057Z,46.69
2023-04-05T11:59:53.126Z,46.74
2023-04-05T12:02:21.516Z,45.44
2023-04-05T12:04:58.345Z,47.16
2023-04-05T12:07:29.461Z,45.95
2023-04-05T12:10:08.770Z,44.53
2023-04-05T12:12:40.505Z,48.17
2023-04-05T12:15:11.604Z,46.82
2023-04-05T12:17:42.774Z,42.57
2023-04-05T12:20:12.681Z,44.50
2023-04-05T12:22:42.540Z,47.08
2023-04-05T12:25:10.961Z,47.58
2023-04-05T12:27:39.077Z,48.14
2023-04-05T12:30:16.993Z,46.25
2023-04-05T12:32:51.416Z,48.92
2023-04-05T12:35:31.788Z,48.27
2023-04-05T12:38:00.894Z,47.68
2023-04-05T12:40:30.115Z,46.31
2023-04-05T12:43:09.380Z,47.21
2023-04-05T12:45:40.505Z,44.96
2023-04-05T12:48:11.936Z,47.00
2023-04-05T12:50:44.878Z,45.85
2023-04-05T12:53:23.358Z,47.34
2023-04-05T12:55:55.523Z,47.83
2023-04-05T12:58:42.886Z,48.41
2023-04-05T13:01:10.636Z,48.13
2023-04-05T13:03:37.851Z,46.70
2023-04-05T13:06:04.797Z,47.25
2023-04-05T13:08:31.743Z,47.96
2023-04-05T13:10:58.666Z,46.59
2023-04-05T13:13:25.730Z,46.60
2023-04-05T13:15:52.881Z,46.81
2023-04-05T13:18:20.519Z,46.04
2023-04-05T13:20:47.539Z,44.52
2023-04-05T13:23:14.496Z,45.88
2023-04-05T13:25:45.223Z,44.81
2023-04-05T13:28:12.265Z,44.08
2023-04-05T13:30:39.282Z,43.01
2023-04-05T13:33:06.699Z,43.35
2023-04-05T13:35:34.035Z,46.06
2023-04-05T13:38:04.341Z,45.30
2023-04-05T13:40:32.541Z,45.37
2023-04-05T13:42:59.780Z,42.02
2023-04-05T13:45:27.975Z,41.83
2023-04-05T13:47:55.639Z,42.71
2023-04-05T13:50:22.733Z,41.04
2023-04-05T13:52:49.712Z,42.28
2023-04-05T13:55:16.777Z,42.95
2023-04-05T13:57:43.779Z,45.14
2023-04-05T14:00:11.634Z,45.82
2023-04-05T14:02:39.154Z,46.53
2023-04-05T14:05:08.483Z,44.77
2023-04-05T14:07:35.950Z,46.10
2023-04-05T14:10:03.219Z,44.41
2023-04-05T14:12:31.471Z,46.61
2023-04-05T14:15:00.096Z,48.24
2023-04-05T14:17:27.149Z,48.09
2023-04-05T14:19:54.122Z,46.22
2023-04-05T14:22:21.551Z,46.08
2023-04-05T14:24:48.657Z,46.50
2023-04-05T14:27:15.778Z,45.71
2023-04-05T14:29:44.079Z,45.49
2023-04-05T14:32:11.087Z,43.60
2023-04-05T14:34:38.198Z,46.46
2023-04-05T14:37:06.589Z,46.17
2023-04-05T14:39:34.115Z,47.36
2023-04-05T14:42:01.406Z,46.75
2023-04-05T14:44:28.434Z,48.42
2023-04-05T14:46:55.419Z,49.29
2023-04-05T14:49:22.414Z,46.94
2023-04-05T14:51:49.475Z,48.07
2023-04-05T14:54:16.858Z,48.89
2023-04-05T14:56:44.048Z,49.50
2023-04-05T14:59:11.107Z,49.69
2023-04-05T15:01:38.234Z,50.02
2023-04-05T15:04:07.461Z,47.85
2023-04-05T15:06:35.724Z,50.17
2023-04-05T15:09:02.654Z,50.29
2023-04-05T15:11:29.697Z,50.41
2023-04-05T15:13:56.624Z,50.33
2023-04-05T15:16:25.049Z,49.15
2023-04-05T15:18:52.171Z,49.94
2023-04-05T15:21:19.991Z,49.89
2023-04-05T15:23:46.960Z,49.92
2023-04-05T15:26:13.898Z,49.72
2023-04-05T15:28:41.104Z,49.24
2023-04-05T15:31:08.183Z,48.93
2023-04-05T15:33:35.229Z,47.61
2023-04-05T15:36:02.268Z,48.26
2023-04-05T15:38:29.222Z,46.80
2023-04-05T15:40:57.790Z,45.82
2023-04-05T15:43:24.772Z,46.44
2023-04-05T15:45:51.773Z,46.76
2023-04-05T15:48:18.736Z,46.85
2023-04-05T15:50:45.986Z,46.81
2023-04-05T15:53:13.190Z,47.56
2023-04-05T15:55:40.130Z,46.86
2023-04-05T15:58:07.406Z,48.02
2023-04-05T16:00:34.565Z,48.63
2023-04-05T16:03:02.190Z,49.41
2023-04-05T16:05:29.279Z,49.04
2023-04-05T16:07:56.295Z,50.20
2023-04-05T16:10:23.361Z,49.81
2023-04-05T16:12:52.435Z,50.38
2023-04-05T16:15:19.545Z,49.47
2023-04-05T16:17:46.765Z,48.60
2023-04-05T16:20:13.863Z,49.24
2023-04-05T16:22:41.426Z,49.68
2023-04-05T16:25:08.432Z,50.43
2023-04-05T16:27:36.940Z,49.45
2023-04-05T16:30:04.271Z,50.91
2023-04-05T16:32:31.310Z,50.37
2023-04-05T16:34:58.355Z,50.01
2023-04-05T16:37:25.580Z,50.70
2023-04-05T16:39:52.610Z,50.79
2023-04-05T16:42:19.635Z,50.21
2023-04-05T16:44:46.595Z,49.56
2023-04-05T16:47:13.540Z,49.85
2023-04-05T16:49:40.531Z,49.30
2023-04-05T16:52:07.461Z,49.69
2023-04-05T16:54:34.403Z,49.43
2023-04-05T16:57:02.150Z,49.45
2023-04-05T16:59:29.239Z,49.33
2023-04-05T17:01:56.190Z,49.68
2023-04-05T17:04:23.212Z,49.54
2023-04-05T17:06:51.473Z,49.40
2023-04-05T17:09:19.432Z,49.03
2023-04-05T17:11:46.809Z,49.52
2023-04-05T17:14:13.808Z,48.01
2023-04-05T17:16:40.904Z,48.75
2023-04-05T17:19:07.868Z,48.77
2023-04-05T17:21:35.511Z,48.57
2023-04-05T17:24:03.062Z,49.08
2023-04-05T17:26:30.258Z,48.60
2023-04-05T17:28:57.281Z,48.68
2023-04-05T17:31:24.809Z,48.69
2023-04-05T17:33:51.792Z,48.68
2023-04-05T17:36:18.843Z,48.63
2023-04-05T17:38:46.067Z,48.39
2023-04-05T17:41:13.050Z,48.33
2023-04-05T17:43:40.320Z,48.08
2023-04-05T17:46:09.269Z,48.25
2023-04-05T17:48:36.413Z,48.38
2023-04-05T17:51:09.367Z,48.65
2023-04-05T17:53:36.412Z,47.82
2023-04-05T17:56:03.673Z,47.97
2023-04-05T17:58:32.223Z,47.90
2023-04-05T18:00:59.662Z,47.62
2023-04-05T18:03:27.525Z,47.56
2023-04-05T18:05:55.829Z,47.55
2023-04-05T18:08:23.808Z,47.28
2023-04-05T18:10:57.653Z,47.26
2023-04-05T18:13:26.302Z,46.42
2023-04-05T18:16:00.045Z,46.94
2023-04-05T18:18:28.465Z,46.67
2023-04-05T18:20:56.416Z,46.98
2023-04-05T18:23:24.861Z,46.51
2023-04-05T18:25:53.628Z,46.77
2023-04-05T18:28:23.248Z,46.60
2023-04-05T18:30:51.650Z,46.94
2023-04-05T18:33:18.872Z,47.13
2023-04-05T18:35:50.435Z,47.28
2023-04-05T18:38:17.720Z,47.25
2023-04-05T18:40:44.778Z,47.22
2023-04-05T18:43:11.847Z,47.09
2023-04-05T18:45:39.440Z,46.85
2023-04-05T18:48:06.540Z,47.04
2023-04-05T18:50:34.409Z,46.90
2023-04-05T18:53:01.655Z,46.93
2023-04-05T18:55:28.592Z,47.12
2023-04-05T18:57:55.551Z,47.03
2023-04-05T19:00:22.496Z,46.88
2023-04-05T19:02:49.451Z,47.16
2023-04-05T19:05:16.503Z,47.36
2023-04-05T19:07:43.779Z,47.04
2023-04-05T19:10:11.784Z,47.08
2023-04-05T19:12:38.748Z,47.17
2023-04-05T19:15:07.120Z,47.05
2023-04-05T19:17:34.181Z,47.11
2023-04-05T19:20:01.149Z,47.15
2023-04-05T19:22:28.164Z,47.17
2023-04-05T19:24:55.331Z,47.15
2023-04-05T19:27:22.283Z,47.10
2023-04-05T19:29:49.350Z,46.88
2023-04-05T19:32:16.293Z,46.92
2023-04-05T19:34:43.266Z,47.02
2023-04-05T19:37:10.330Z,47.22
2023-04-05T19:39:37.365Z,47.16
2023-04-05T19:42:05.909Z,47.20
2023-04-05T19:44:57.911Z,47.08
2023-04-05T19:47:26.293Z,47.01
2023-04-05T19:49:56.964Z,47.09
2023-04-05T19:52:48.124Z,47.05
2023-04-05T19:55:41.568Z,46.99
2023-04-05T19:58:10.363Z,47.27
2023-04-05T20:00:56.544Z,47.09
2023-04-05T20:03:32.791Z,47.26
2023-04-05T20:06:07.921Z,47.19
2023-04-05T20:08:37.579Z,47.06
2023-04-05T20:11:16.008Z,47.28
2023-04-05T20:13:55.091Z,47.07
2023-04-05T20:16:34.119Z,47.16
2023-04-05T20:19:11.347Z,47.66
2023-04-05T20:21:38.784Z,46.85
2023-04-05T20:24:09.683Z,46.64
2023-04-05T20:26:36.676Z,46.96
2023-04-05T20:29:08.388Z,46.92
2023-04-05T20:31:40.078Z,46.72
2023-04-05T20:34:21.797Z,46.56
2023-04-05T20:36:52.143Z,46.65
2023-04-05T20:39:19.578Z,46.50
2023-04-05T20:41:47.137Z,46.84
2023-04-05T20:44:27.478Z,46.65
2023-04-05T20:46:57.114Z,46.74
2023-04-05T20:49:25.909Z,46.87
2023-04-05T20:51:55.721Z,46.80
2023-04-05T20:54:23.021Z,46.97
2023-04-05T20:56:49.949Z,47.20
2023-04-05T20:59:17.041Z,47.11
2023-04-05T21:01:46.960Z,47.09
2023-04-05T21:04:14.484Z,47.53
2023-04-05T21:06:42.252Z,47.34
2023-04-05T21:09:09.843Z,47.26
2023-04-05T21:11:37.308Z,47.13
2023-04-05T21:14:04.502Z,47.52
2023-04-05T21:16:31.683Z,47.39
2023-04-05T21:18:58.774Z,47.07
2023-04-05T21:21:26.143Z,47.23
2023-04-05T21:23:53.125Z,47.30
2023-04-05T21:26:20.112Z,47.67
2023-04-05T21:28:47.036Z,47.36
2023-04-05T21:31:13.984Z,47.40
2023-04-05T21:33:41.564Z,47.69
2023-04-05T21:36:08.701Z,47.46
2023-04-05T21:38:35.843Z,47.54
2023-04-05T21:41:02.823Z,47.56
2023-04-05T21:43:29.820Z,47.74
2023-04-05T21:45:56.861Z,47.56
2023-04-05T21:48:24.702Z,47.59
2023-04-05T21:50:51.896Z,47.37
2023-04-05T21:53:18.934Z,47.46
2023-04-05T21:55:46.172Z,47.46
2023-04-05T21:58:13.207Z,47.64
2023-04-05T22:00:40.212Z,47.56
2023-04-05T22:03:07.322Z,47.56
2023-04-05T22:05:38.349Z,47.69
2023-04-05T22:08:07.097Z,47.61
2023-04-05T22:10:35.288Z,47.59
2023-04-05T22:13:02.307Z,47.72
2023-04-05T22:15:29.318Z,47.87
2023-04-05T22:17:56.380Z,47.70
2023-04-05T22:20:23.422Z,47.96
2023-04-05T22:22:50.358Z,47.80
2023-04-05T22:25:17.366Z,48.04
2023-04-05T22:27:44.523Z,47.73
2023-04-05T22:30:12.118Z,47.73
2023-04-05T22:32:39.210Z,47.84
2023-04-05T22:35:06.888Z,47.92
2023-04-05T22:37:36.427Z,47.98
2023-04-05T22:40:06.042Z,47.91
2023-04-05T22:42:32.993Z,48.12
2023-04-05T22:45:00.078Z,48.11
2023-04-05T22:47:27.155Z,48.19
2023-04-05T22:49:54.232Z,48.20
2023-04-05T22:52:21.401Z,48.23
2023-04-05T22:54:48.443Z,48.02
2023-04-05T22:57:15.704Z,48.26
2023-04-05T22:59:43.008Z,48.17
2023-04-05T23:02:12.138Z,48.05
2023-04-05T23:04:39.159Z,48.03
2023-04-05T23:07:06.165Z,48.06
2023-04-05T23:09:33.264Z,48.00
2023-04-05T23:12:00.258Z,47.83
2023-04-05T23:14:27.363Z,47.86
2023-04-05T23:16:54.318Z,47.77
2023-04-05T23:19:21.461Z,47.79
2023-04-05T23:21:49.018Z,47.93
2023-04-05T23:24:16.067Z,47.80
2023-04-05T23:26:43.004Z,48.01
2023-04-05T23:29:10.110Z,47.87
2023-04-05T23:31:37.225Z,47.84
2023-04-05T23:34:04.232Z,47.87
2023-04-05T23:36:31.201Z,48.04
2023-04-05T23:39:00.001Z,48.13
2023-04-05T23:41:27.156Z,48.00
2023-04-05T23:43:54.126Z,48.27
2023-04-05T23:46:22.038Z,48.28
2023-04-05T23:48:49.170Z,48.26
2023-04-05T23:51:16.191Z,48.17
2023-04-05T23:53:43.189Z,48.42
2023-04-05T23:56:10.285Z,48.45
2023-04-05T23:58:37.270Z,48.50
